sensor_id;sensor_type;location;lat;lon;timestamp;P1;durP1;ratioP1;P2;durP2;ratioP2
66425;SDS011;53237;46.158;14.604;2022-10-16T00:01:14;37.72;;;33.05;;
66425;SDS011;53237;46.158;14.604;2022-10-16T00:03:41;38.80;;;32.28;;
66425;SDS011;53237;46.158;14.604;2022-10-16T00:06:07;38.45;;;31.42;;
66425;SDS011;53237;46.158;14.604;2022-10-16T00:08:34;36.78;;;30.75;;
66425;SDS011;53237;46.158;14.604;2022-10-16T00:11:04;34.83;;;31.10;;
66425;SDS011;53237;46.158;14.604;2022-10-16T00:13:31;37.28;;;31.35;;
66425;SDS011;53237;46.158;14.604;2022-10-16T00:15:58;34.13;;;30.30;;
66425;SDS011;53237;46.158;14.604;2022-10-16T00:18:24;35.60;;;30.17;;
66425;SDS011;53237;46.158;14.604;2022-10-16T00:20:50;36.10;;;30.13;;
66425;SDS011;53237;46.158;14.604;2022-10-16T00:23:16;36.05;;;30.92;;
66425;SDS011;53237;46.158;14.604;2022-10-16T00:25:42;34.92;;;30.45;;
66425;SDS011;53237;46.158;14.604;2022-10-16T00:28:08;34.72;;;30.90;;
66425;SDS011;53237;46.158;14.604;2022-10-16T00:30:37;34.28;;;29.55;;
66425;SDS011;53237;46.158;14.604;2022-10-16T00:33:03;34.33;;;30.63;;
66425;SDS011;53237;46.158;14.604;2022-10-16T00:35:30;35.47;;;31.15;;
66425;SDS011;53237;46.158;14.604;2022-10-16T00:37:56;36.58;;;31.30;;
66425;SDS011;53237;46.158;14.604;2022-10-16T00:40:22;37.22;;;31.90;;
66425;SDS011;53237;46.158;14.604;2022-10-16T00:42:48;36.85;;;32.25;;
66425;SDS011;53237;46.158;14.604;2022-10-16T00:45:14;36.25;;;31.00;;
66425;SDS011;53237;46.158;14.604;2022-10-16T00:47:42;36.13;;;31.50;;
66425;SDS011;53237;46.158;14.604;2022-10-16T00:52:41;36.92;;;32.83;;
66425;SDS011;53237;46.158;14.604;2022-10-16T00:55:09;36.47;;;31.60;;
66425;SDS011;53237;46.158;14.604;2022-10-16T00:57:35;37.00;;;31.83;;
66425;SDS011;53237;46.158;14.604;2022-10-16T01:00:03;38.83;;;32.65;;
66425;SDS011;53237;46.158;14.604;2022-10-16T01:02:30;39.92;;;32.30;;
66425;SDS011;53237;46.158;14.604;2022-10-16T01:04:56;35.38;;;31.55;;
66425;SDS011;53237;46.158;14.604;2022-10-16T01:10:14;34.45;;;30.75;;
66425;SDS011;53237;46.158;14.604;2022-10-16T01:17:48;37.78;;;31.90;;
66425;SDS011;53237;46.158;14.604;2022-10-16T01:25:12;35.25;;;30.63;;
66425;SDS011;53237;46.158;14.604;2022-10-16T01:27:42;33.53;;;29.98;;
66425;SDS011;53237;46.158;14.604;2022-10-16T01:30:18;34.10;;;30.30;;
66425;SDS011;53237;46.158;14.604;2022-10-16T01:35:29;34.78;;;30.95;;
66425;SDS011;53237;46.158;14.604;2022-10-16T01:38:01;36.53;;;31.45;;
66425;SDS011;53237;46.158;14.604;2022-10-16T01:40:27;36.17;;;32.13;;
66425;SDS011;53237;46.158;14.604;2022-10-16T01:43:05;32.65;;;28.38;;
66425;SDS011;53237;46.158;14.604;2022-10-16T01:45:31;32.58;;;29.08;;
66425;SDS011;53237;46.158;14.604;2022-10-16T01:47:59;33.03;;;29.58;;
66425;SDS011;53237;46.158;14.604;2022-10-16T01:50:25;34.38;;;30.60;;
66425;SDS011;53237;46.158;14.604;2022-10-16T01:52:52;34.60;;;29.25;;
66425;SDS011;53237;46.158;14.604;2022-10-16T01:55:25;32.38;;;28.98;;
66425;SDS011;53237;46.158;14.604;2022-10-16T01:57:52;32.40;;;29.00;;
66425;SDS011;53237;46.158;14.604;2022-10-16T02:00:19;30.58;;;27.48;;
66425;SDS011;53237;46.158;14.604;2022-10-16T02:02:47;30.48;;;27.25;;
66425;SDS011;53237;46.158;14.604;2022-10-16T02:05:16;30.30;;;27.20;;
66425;SDS011;53237;46.158;14.604;2022-10-16T02:07:43;30.70;;;27.45;;
66425;SDS011;53237;46.158;14.604;2022-10-16T02:10:10;30.10;;;27.00;;
66425;SDS011;53237;46.158;14.604;2022-10-16T02:12:36;30.92;;;27.77;;
66425;SDS011;53237;46.158;14.604;2022-10-16T02:15:04;29.58;;;26.58;;
66425;SDS011;53237;46.158;14.604;2022-10-16T02:17:31;29.98;;;26.90;;
66425;SDS011;53237;46.158;14.604;2022-10-16T02:19:57;28.50;;;25.50;;
66425;SDS011;53237;46.158;14.604;2022-10-16T02:22:28;30.08;;;26.95;;
66425;SDS011;53237;46.158;14.604;2022-10-16T02:24:58;30.63;;;27.50;;
66425;SDS011;53237;46.158;14.604;2022-10-16T02:29:55;30.77;;;27.55;;
66425;SDS011;53237;46.158;14.604;2022-10-16T02:32:24;29.85;;;26.73;;
66425;SDS011;53237;46.158;14.604;2022-10-16T02:34:52;32.63;;;27.85;;
66425;SDS011;53237;46.158;14.604;2022-10-16T02:37:18;31.27;;;27.85;;
66425;SDS011;53237;46.158;14.604;2022-10-16T02:39:44;31.95;;;27.73;;
66425;SDS011;53237;46.158;14.604;2022-10-16T02:42:14;34.42;;;28.70;;
66425;SDS011;53237;46.158;14.604;2022-10-16T02:44:40;35.28;;;29.52;;
66425;SDS011;53237;46.158;14.604;2022-10-16T02:47:06;35.30;;;29.55;;
66425;SDS011;53237;46.158;14.604;2022-10-16T02:49:32;36.75;;;29.95;;
66425;SDS011;53237;46.158;14.604;2022-10-16T02:51:58;35.35;;;29.33;;
66425;SDS011;53237;46.158;14.604;2022-10-16T02:54:24;34.85;;;29.80;;
66425;SDS011;53237;46.158;14.604;2022-10-16T02:56:50;38.08;;;30.77;;
66425;SDS011;53237;46.158;14.604;2022-10-16T02:59:16;34.83;;;29.80;;
66425;SDS011;53237;46.158;14.604;2022-10-16T03:01:42;35.38;;;29.17;;
66425;SDS011;53237;46.158;14.604;2022-10-16T03:04:08;37.72;;;30.02;;
66425;SDS011;53237;46.158;14.604;2022-10-16T03:06:34;35.88;;;28.52;;
66425;SDS011;53237;46.158;14.604;2022-10-16T03:09:00;33.08;;;29.15;;
66425;SDS011;53237;46.158;14.604;2022-10-16T03:11:26;34.83;;;29.27;;
66425;SDS011;53237;46.158;14.604;2022-10-16T03:13:53;36.30;;;30.42;;
66425;SDS011;53237;46.158;14.604;2022-10-16T03:16:19;36.75;;;31.27;;
66425;SDS011;53237;46.158;14.604;2022-10-16T03:18:47;35.45;;;30.70;;
66425;SDS011;53237;46.158;14.604;2022-10-16T03:21:14;40.60;;;32.50;;
66425;SDS011;53237;46.158;14.604;2022-10-16T03:23:40;35.22;;;31.33;;
66425;SDS011;53237;46.158;14.604;2022-10-16T03:26:06;35.03;;;30.60;;
66425;SDS011;53237;46.158;14.604;2022-10-16T03:28:32;36.25;;;30.13;;
66425;SDS011;53237;46.158;14.604;2022-10-16T03:30:58;36.55;;;29.65;;
66425;SDS011;53237;46.158;14.604;2022-10-16T03:33:24;33.85;;;29.92;;
66425;SDS011;53237;46.158;14.604;2022-10-16T03:35:50;35.83;;;30.25;;
66425;SDS011;53237;46.158;14.604;2022-10-16T03:38:17;36.50;;;31.05;;
66425;SDS011;53237;46.158;14.604;2022-10-16T03:40:43;35.47;;;29.55;;
66425;SDS011;53237;46.158;14.604;2022-10-16T03:43:09;34.28;;;29.77;;
66425;SDS011;53237;46.158;14.604;2022-10-16T03:45:35;33.67;;;28.52;;
66425;SDS011;53237;46.158;14.604;2022-10-16T03:48:01;32.85;;;27.48;;
66425;SDS011;53237;46.158;14.604;2022-10-16T03:50:28;35.83;;;30.38;;
66425;SDS011;53237;46.158;14.604;2022-10-16T03:52:54;35.97;;;29.73;;
66425;SDS011;53237;46.158;14.604;2022-10-16T03:55:20;34.00;;;28.80;;
66425;SDS011;53237;46.158;14.604;2022-10-16T03:57:46;32.72;;;28.00;;
66425;SDS011;53237;46.158;14.604;2022-10-16T04:00:12;34.72;;;29.55;;
66425;SDS011;53237;46.158;14.604;2022-10-16T04:02:38;35.10;;;29.50;;
66425;SDS011;53237;46.158;14.604;2022-10-16T04:05:04;33.75;;;29.13;;
66425;SDS011;53237;46.158;14.604;2022-10-16T04:07:30;33.30;;;28.02;;
66425;SDS011;53237;46.158;14.604;2022-10-16T04:09:56;33.72;;;29.35;;
66425;SDS011;53237;46.158;14.604;2022-10-16T04:12:23;35.50;;;29.20;;
66425;SDS011;53237;46.158;14.604;2022-10-16T04:14:49;32.53;;;28.17;;
66425;SDS011;53237;46.158;14.604;2022-10-16T04:17:15;31.98;;;28.45;;
66425;SDS011;53237;46.158;14.604;2022-10-16T04:19:41;35.08;;;28.45;;
66425;SDS011;53237;46.158;14.604;2022-10-16T04:22:08;37.17;;;30.90;;
66425;SDS011;53237;46.158;14.604;2022-10-16T04:24:34;33.63;;;28.45;;
66425;SDS011;53237;46.158;14.604;2022-10-16T04:27:00;33.83;;;29.55;;
66425;SDS011;53237;46.158;14.604;2022-10-16T04:29:26;34.05;;;28.75;;
66425;SDS011;53237;46.158;14.604;2022-10-16T04:31:52;30.25;;;26.80;;
66425;SDS011;53237;46.158;14.604;2022-10-16T04:34:18;30.95;;;26.80;;
66425;SDS011;53237;46.158;14.604;2022-10-16T04:36:43;30.17;;;26.75;;
66425;SDS011;53237;46.158;14.604;2022-10-16T04:39:10;31.45;;;27.40;;
66425;SDS011;53237;46.158;14.604;2022-10-16T04:41:36;32.92;;;28.95;;
66425;SDS011;53237;46.158;14.604;2022-10-16T04:44:02;31.30;;;27.92;;
66425;SDS011;53237;46.158;14.604;2022-10-16T04:46:28;30.98;;;27.73;;
66425;SDS011;53237;46.158;14.604;2022-10-16T04:48:54;30.17;;;26.02;;
66425;SDS011;53237;46.158;14.604;2022-10-16T04:51:20;30.23;;;26.92;;
66425;SDS011;53237;46.158;14.604;2022-10-16T04:53:46;30.13;;;26.58;;
66425;SDS011;53237;46.158;14.604;2022-10-16T04:56:12;30.17;;;26.90;;
66425;SDS011;53237;46.158;14.604;2022-10-16T04:58:39;30.38;;;27.08;;
66425;SDS011;53237;46.158;14.604;2022-10-16T05:01:05;31.63;;;28.17;;
66425;SDS011;53237;46.158;14.604;2022-10-16T05:03:32;29.40;;;26.23;;
66425;SDS011;53237;46.158;14.604;2022-10-16T05:05:58;30.98;;;27.75;;
66425;SDS011;53237;46.158;14.604;2022-10-16T05:08:24;29.38;;;26.20;;
66425;SDS011;53237;46.158;14.604;2022-10-16T05:10:50;29.33;;;26.13;;
66425;SDS011;53237;46.158;14.604;2022-10-16T05:13:16;30.48;;;27.17;;
66425;SDS011;53237;46.158;14.604;2022-10-16T05:15:46;30.95;;;27.58;;
66425;SDS011;53237;46.158;14.604;2022-10-16T05:18:13;31.20;;;27.88;;
66425;SDS011;53237;46.158;14.604;2022-10-16T05:20:40;29.15;;;25.45;;
66425;SDS011;53237;46.158;14.604;2022-10-16T05:23:06;28.70;;;25.42;;
66425;SDS011;53237;46.158;14.604;2022-10-16T05:25:32;31.55;;;27.40;;
66425;SDS011;53237;46.158;14.604;2022-10-16T05:27:58;30.65;;;27.40;;
66425;SDS011;53237;46.158;14.604;2022-10-16T05:30:24;30.25;;;27.13;;
66425;SDS011;53237;46.158;14.604;2022-10-16T05:32:50;29.90;;;26.70;;
66425;SDS011;53237;46.158;14.604;2022-10-16T05:35:17;29.42;;;25.38;;
66425;SDS011;53237;46.158;14.604;2022-10-16T05:37:44;29.88;;;26.70;;
66425;SDS011;53237;46.158;14.604;2022-10-16T05:40:10;33.70;;;27.95;;
66425;SDS011;53237;46.158;14.604;2022-10-16T05:42:37;28.67;;;25.73;;
66425;SDS011;53237;46.158;14.604;2022-10-16T05:45:04;28.95;;;25.88;;
66425;SDS011;53237;46.158;14.604;2022-10-16T05:47:31;28.98;;;25.88;;
66425;SDS011;53237;46.158;14.604;2022-10-16T05:49:57;30.17;;;26.98;;
66425;SDS011;53237;46.158;14.604;2022-10-16T05:52:23;35.78;;;28.52;;
66425;SDS011;53237;46.158;14.604;2022-10-16T05:54:49;49.92;;;25.88;;
66425;SDS011;53237;46.158;14.604;2022-10-16T05:57:15;28.80;;;25.70;;
66425;SDS011;53237;46.158;14.604;2022-10-16T05:59:41;32.38;;;26.75;;
66425;SDS011;53237;46.158;14.604;2022-10-16T06:02:10;34.33;;;25.73;;
66425;SDS011;53237;46.158;14.604;2022-10-16T06:04:38;29.98;;;25.60;;
66425;SDS011;53237;46.158;14.604;2022-10-16T06:07:04;29.00;;;26.02;;
66425;SDS011;53237;46.158;14.604;2022-10-16T06:09:30;58.75;;;27.65;;
66425;SDS011;53237;46.158;14.604;2022-10-16T06:11:56;51.15;;;27.20;;
66425;SDS011;53237;46.158;14.604;2022-10-16T06:14:22;35.80;;;26.48;;
66425;SDS011;53237;46.158;14.604;2022-10-16T06:16:48;28.67;;;25.67;;
66425;SDS011;53237;46.158;14.604;2022-10-16T06:19:14;42.78;;;26.98;;
66425;SDS011;53237;46.158;14.604;2022-10-16T06:21:41;26.67;;;23.95;;
66425;SDS011;53237;46.158;14.604;2022-10-16T06:24:07;27.85;;;24.92;;
66425;SDS011;53237;46.158;14.604;2022-10-16T06:26:33;26.67;;;23.90;;
66425;SDS011;53237;46.158;14.604;2022-10-16T06:28:59;27.88;;;23.92;;
66425;SDS011;53237;46.158;14.604;2022-10-16T06:31:26;25.92;;;23.33;;
66425;SDS011;53237;46.158;14.604;2022-10-16T06:33:56;27.02;;;24.23;;
66425;SDS011;53237;46.158;14.604;2022-10-16T06:36:22;26.83;;;24.02;;
66425;SDS011;53237;46.158;14.604;2022-10-16T06:38:49;26.10;;;23.50;;
66425;SDS011;53237;46.158;14.604;2022-10-16T06:41:19;25.95;;;23.35;;
66425;SDS011;53237;46.158;14.604;2022-10-16T06:43:46;25.42;;;22.83;;
66425;SDS011;53237;46.158;14.604;2022-10-16T06:46:13;27.25;;;24.55;;
66425;SDS011;53237;46.158;14.604;2022-10-16T06:48:39;29.80;;;22.60;;
66425;SDS011;53237;46.158;14.604;2022-10-16T06:51:12;24.90;;;22.50;;
66425;SDS011;53237;46.158;14.604;2022-10-16T06:53:40;24.77;;;22.27;;
66425;SDS011;53237;46.158;14.604;2022-10-16T06:56:10;23.05;;;20.75;;
66425;SDS011;53237;46.158;14.604;2022-10-16T06:58:37;23.85;;;21.55;;
66425;SDS011;53237;46.158;14.604;2022-10-16T07:01:04;24.02;;;21.65;;
66425;SDS011;53237;46.158;14.604;2022-10-16T07:03:30;24.05;;;21.63;;
66425;SDS011;53237;46.158;14.604;2022-10-16T07:05:56;21.67;;;19.58;;
66425;SDS011;53237;46.158;14.604;2022-10-16T07:08:23;21.98;;;19.77;;
66425;SDS011;53237;46.158;14.604;2022-10-16T07:10:48;23.77;;;21.42;;
66425;SDS011;53237;46.158;14.604;2022-10-16T07:13:23;22.67;;;20.40;;
66425;SDS011;53237;46.158;14.604;2022-10-16T07:15:49;22.73;;;20.30;;
66425;SDS011;53237;46.158;14.604;2022-10-16T07:18:15;21.67;;;19.58;;
66425;SDS011;53237;46.158;14.604;2022-10-16T07:20:41;23.90;;;21.50;;
66425;SDS011;53237;46.158;14.604;2022-10-16T07:23:07;24.08;;;21.58;;
66425;SDS011;53237;46.158;14.604;2022-10-16T07:25:33;22.70;;;20.40;;
66425;SDS011;53237;46.158;14.604;2022-10-16T07:28:00;24.05;;;21.55;;
66425;SDS011;53237;46.158;14.604;2022-10-16T07:30:26;23.83;;;21.50;;
66425;SDS011;53237;46.158;14.604;2022-10-16T07:32:52;23.02;;;20.73;;
66425;SDS011;53237;46.158;14.604;2022-10-16T07:35:18;24.02;;;21.70;;
66425;SDS011;53237;46.158;14.604;2022-10-16T07:37:45;23.75;;;21.35;;
66425;SDS011;53237;46.158;14.604;2022-10-16T07:40:11;24.23;;;21.73;;
66425;SDS011;53237;46.158;14.604;2022-10-16T07:42:37;24.52;;;21.92;;
66425;SDS011;53237;46.158;14.604;2022-10-16T07:45:03;23.88;;;21.48;;
66425;SDS011;53237;46.158;14.604;2022-10-16T07:47:29;54.75;;;31.88;;
66425;SDS011;53237;46.158;14.604;2022-10-16T07:49:55;23.35;;;20.95;;
66425;SDS011;53237;46.158;14.604;2022-10-16T07:52:22;53.25;;;36.78;;
66425;SDS011;53237;46.158;14.604;2022-10-16T07:54:48;24.20;;;21.80;;
66425;SDS011;53237;46.158;14.604;2022-10-16T07:57:13;23.98;;;21.58;;
66425;SDS011;53237;46.158;14.604;2022-10-16T07:59:44;22.90;;;20.60;;
66425;SDS011;53237;46.158;14.604;2022-10-16T08:02:10;24.25;;;21.85;;
66425;SDS011;53237;46.158;14.604;2022-10-16T08:04:36;23.63;;;21.20;;
66425;SDS011;53237;46.158;14.604;2022-10-16T08:07:02;51.33;;;28.50;;
66425;SDS011;53237;46.158;14.604;2022-10-16T08:09:28;54.53;;;29.05;;
66425;SDS011;53237;46.158;14.604;2022-10-16T08:11:54;24.67;;;22.10;;
66425;SDS011;53237;46.158;14.604;2022-10-16T08:14:20;30.30;;;23.58;;
66425;SDS011;53237;46.158;14.604;2022-10-16T08:16:46;23.30;;;20.90;;
66425;SDS011;53237;46.158;14.604;2022-10-16T08:19:12;24.60;;;22.00;;
66425;SDS011;53237;46.158;14.604;2022-10-16T08:21:40;24.75;;;22.25;;
66425;SDS011;53237;46.158;14.604;2022-10-16T08:24:06;28.65;;;25.02;;
66425;SDS011;53237;46.158;14.604;2022-10-16T08:26:32;27.05;;;24.15;;
66425;SDS011;53237;46.158;14.604;2022-10-16T08:28:58;26.30;;;22.83;;
66425;SDS011;53237;46.158;14.604;2022-10-16T08:31:24;27.60;;;24.73;;
66425;SDS011;53237;46.158;14.604;2022-10-16T08:33:52;24.73;;;22.23;;
66425;SDS011;53237;46.158;14.604;2022-10-16T08:36:18;24.30;;;21.85;;
66425;SDS011;53237;46.158;14.604;2022-10-16T08:38:46;22.65;;;20.35;;
66425;SDS011;53237;46.158;14.604;2022-10-16T08:43:42;23.02;;;20.73;;
66425;SDS011;53237;46.158;14.604;2022-10-16T08:46:19;25.33;;;22.63;;
66425;SDS011;53237;46.158;14.604;2022-10-16T08:48:51;23.40;;;20.92;;
66425;SDS011;53237;46.158;14.604;2022-10-16T08:51:21;24.88;;;22.27;;
66425;SDS011;53237;46.158;14.604;2022-10-16T08:56:34;24.90;;;21.95;;
66425;SDS011;53237;46.158;14.604;2022-10-16T08:59:00;29.25;;;26.15;;
66425;SDS011;53237;46.158;14.604;2022-10-16T09:01:39;25.50;;;22.70;;
66425;SDS011;53237;46.158;14.604;2022-10-16T09:16:43;28.58;;;24.83;;
66425;SDS011;53237;46.158;14.604;2022-10-16T09:19:30;47.50;;;38.58;;
66425;SDS011;53237;46.158;14.604;2022-10-16T09:21:57;26.83;;;23.67;;
66425;SDS011;53237;46.158;14.604;2022-10-16T09:24:25;28.05;;;24.98;;
66425;SDS011;53237;46.158;14.604;2022-10-16T09:26:51;30.65;;;27.20;;
66425;SDS011;53237;46.158;14.604;2022-10-16T09:29:18;35.92;;;30.88;;
66425;SDS011;53237;46.158;14.604;2022-10-16T09:31:45;35.42;;;29.83;;
66425;SDS011;53237;46.158;14.604;2022-10-16T09:36:43;29.02;;;25.30;;
66425;SDS011;53237;46.158;14.604;2022-10-16T09:39:10;33.38;;;27.70;;
66425;SDS011;53237;46.158;14.604;2022-10-16T09:41:37;32.75;;;28.55;;
66425;SDS011;53237;46.158;14.604;2022-10-16T09:44:04;41.80;;;34.50;;
66425;SDS011;53237;46.158;14.604;2022-10-16T09:46:33;45.90;;;37.10;;
66425;SDS011;53237;46.158;14.604;2022-10-16T09:49:01;28.13;;;25.05;;
66425;SDS011;53237;46.158;14.604;2022-10-16T09:51:28;32.90;;;29.42;;
66425;SDS011;53237;46.158;14.604;2022-10-16T09:53:56;30.23;;;27.02;;
66425;SDS011;53237;46.158;14.604;2022-10-16T09:56:23;30.10;;;25.55;;
66425;SDS011;53237;46.158;14.604;2022-10-16T09:58:54;28.92;;;25.90;;
66425;SDS011;53237;46.158;14.604;2022-10-16T10:01:21;33.05;;;27.02;;
66425;SDS011;53237;46.158;14.604;2022-10-16T10:03:48;27.40;;;24.40;;
66425;SDS011;53237;46.158;14.604;2022-10-16T10:08:53;29.10;;;25.23;;
66425;SDS011;53237;46.158;14.604;2022-10-16T10:11:35;32.85;;;29.35;;
66425;SDS011;53237;46.158;14.604;2022-10-16T10:14:44;34.13;;;30.05;;
66425;SDS011;53237;46.158;14.604;2022-10-16T10:16:52;27.52;;;24.60;;
66425;SDS011;53237;46.158;14.604;2022-10-16T10:19:22;29.00;;;25.70;;
66425;SDS011;53237;46.158;14.604;2022-10-16T10:21:49;26.58;;;23.77;;
66425;SDS011;53237;46.158;14.604;2022-10-16T10:24:17;28.15;;;25.15;;
66425;SDS011;53237;46.158;14.604;2022-10-16T10:27:06;29.35;;;25.70;;
66425;SDS011;53237;46.158;14.604;2022-10-16T10:29:42;26.73;;;23.02;;
66425;SDS011;53237;46.158;14.604;2022-10-16T10:35:06;38.20;;;24.80;;
66425;SDS011;53237;46.158;14.604;2022-10-16T10:42:35;31.38;;;28.02;;
66425;SDS011;53237;46.158;14.604;2022-10-16T10:45:24;28.55;;;24.83;;
66425;SDS011;53237;46.158;14.604;2022-10-16T10:47:55;25.98;;;23.08;;
66425;SDS011;53237;46.158;14.604;2022-10-16T10:50:24;28.00;;;24.50;;
66425;SDS011;53237;46.158;14.604;2022-10-16T10:58:20;29.30;;;23.05;;
66425;SDS011;53237;46.158;14.604;2022-10-16T11:03:41;27.33;;;24.35;;
66425;SDS011;53237;46.158;14.604;2022-10-16T11:08:41;25.30;;;22.58;;
66425;SDS011;53237;46.158;14.604;2022-10-16T11:11:32;27.63;;;24.65;;
66425;SDS011;53237;46.158;14.604;2022-10-16T11:13:55;32.65;;;28.00;;
66425;SDS011;53237;46.158;14.604;2022-10-16T11:16:32;31.23;;;25.58;;
66425;SDS011;53237;46.158;14.604;2022-10-16T11:19:45;26.20;;;23.40;;
66425;SDS011;53237;46.158;14.604;2022-10-16T11:21:49;34.60;;;30.10;;
66425;SDS011;53237;46.158;14.604;2022-10-16T11:24:21;26.67;;;23.90;;
66425;SDS011;53237;46.158;14.604;2022-10-16T11:26:49;28.55;;;25.48;;
66425;SDS011;53237;46.158;14.604;2022-10-16T11:29:23;29.77;;;25.52;;
66425;SDS011;53237;46.158;14.604;2022-10-16T11:31:52;29.08;;;24.85;;
66425;SDS011;53237;46.158;14.604;2022-10-16T11:36:51;32.55;;;26.92;;
66425;SDS011;53237;46.158;14.604;2022-10-16T11:39:20;36.17;;;28.92;;
66425;SDS011;53237;46.158;14.604;2022-10-16T11:41:53;36.40;;;30.63;;
66425;SDS011;53237;46.158;14.604;2022-10-16T11:49:51;44.83;;;36.05;;
66425;SDS011;53237;46.158;14.604;2022-10-16T11:54:49;37.13;;;30.65;;
66425;SDS011;53237;46.158;14.604;2022-10-16T11:57:17;39.60;;;32.13;;
66425;SDS011;53237;46.158;14.604;2022-10-16T12:00:08;38.20;;;30.90;;
66425;SDS011;53237;46.158;14.604;2022-10-16T12:07:38;34.97;;;27.52;;
66425;SDS011;53237;46.158;14.604;2022-10-16T12:10:21;37.58;;;30.77;;
66425;SDS011;53237;46.158;14.604;2022-10-16T12:12:48;45.20;;;30.25;;
66425;SDS011;53237;46.158;14.604;2022-10-16T12:17:46;42.40;;;33.08;;
66425;SDS011;53237;46.158;14.604;2022-10-16T12:25:40;40.05;;;32.53;;
66425;SDS011;53237;46.158;14.604;2022-10-16T12:28:20;34.92;;;29.02;;
66425;SDS011;53237;46.158;14.604;2022-10-16T12:30:57;38.10;;;30.00;;
66425;SDS011;53237;46.158;14.604;2022-10-16T12:33:27;28.25;;;24.23;;
66425;SDS011;53237;46.158;14.604;2022-10-16T12:35:54;32.25;;;27.92;;
66425;SDS011;53237;46.158;14.604;2022-10-16T12:38:21;37.97;;;31.63;;
66425;SDS011;53237;46.158;14.604;2022-10-16T12:40:58;34.08;;;27.77;;
66425;SDS011;53237;46.158;14.604;2022-10-16T12:43:38;39.90;;;31.80;;
66425;SDS011;53237;46.158;14.604;2022-10-16T12:48:37;30.25;;;26.10;;
66425;SDS011;53237;46.158;14.604;2022-10-16T12:51:10;35.45;;;29.10;;
66425;SDS011;53237;46.158;14.604;2022-10-16T12:53:36;36.05;;;31.38;;
66425;SDS011;53237;46.158;14.604;2022-10-16T12:56:13;29.05;;;25.92;;
66425;SDS011;53237;46.158;14.604;2022-10-16T12:58:45;33.50;;;29.27;;
66425;SDS011;53237;46.158;14.604;2022-10-16T13:04:10;36.60;;;30.33;;
66425;SDS011;53237;46.158;14.604;2022-10-16T13:15:04;31.33;;;26.70;;
66425;SDS011;53237;46.158;14.604;2022-10-16T13:17:16;33.72;;;26.45;;
66425;SDS011;53237;46.158;14.604;2022-10-16T13:22:15;35.22;;;30.17;;
66425;SDS011;53237;46.158;14.604;2022-10-16T13:30:13;30.17;;;26.27;;
66425;SDS011;53237;46.158;14.604;2022-10-16T13:32:39;35.60;;;28.83;;
66425;SDS011;53237;46.158;14.604;2022-10-16T13:35:18;29.70;;;26.35;;
66425;SDS011;53237;46.158;14.604;2022-10-16T13:37:45;37.63;;;30.92;;
66425;SDS011;53237;46.158;14.604;2022-10-16T13:40:21;32.22;;;28.83;;
66425;SDS011;53237;46.158;14.604;2022-10-16T13:42:47;28.23;;;25.00;;
66425;SDS011;53237;46.158;14.604;2022-10-16T13:45:18;34.85;;;29.02;;
66425;SDS011;53237;46.158;14.604;2022-10-16T13:47:44;35.03;;;28.83;;
66425;SDS011;53237;46.158;14.604;2022-10-16T13:50:15;32.42;;;26.60;;
66425;SDS011;53237;46.158;14.604;2022-10-16T13:52:41;34.47;;;28.27;;
66425;SDS011;53237;46.158;14.604;2022-10-16T13:55:11;32.20;;;27.40;;
66425;SDS011;53237;46.158;14.604;2022-10-16T13:57:37;35.25;;;27.85;;
66425;SDS011;53237;46.158;14.604;2022-10-16T14:00:20;35.03;;;27.90;;
66425;SDS011;53237;46.158;14.604;2022-10-16T14:02:49;32.13;;;27.33;;
66425;SDS011;53237;46.158;14.604;2022-10-16T14:05:16;30.83;;;25.50;;
66425;SDS011;53237;46.158;14.604;2022-10-16T14:07:42;28.00;;;22.40;;
66425;SDS011;53237;46.158;14.604;2022-10-16T14:10:22;36.60;;;28.23;;
66425;SDS011;53237;46.158;14.604;2022-10-16T14:13:23;34.95;;;29.95;;
66425;SDS011;53237;46.158;14.604;2022-10-16T14:15:45;30.75;;;26.55;;
66425;SDS011;53237;46.158;14.604;2022-10-16T14:18:24;28.73;;;24.45;;
66425;SDS011;53237;46.158;14.604;2022-10-16T14:20:51;28.80;;;25.23;;
66425;SDS011;53237;46.158;14.604;2022-10-16T14:23:28;34.90;;;28.85;;
66425;SDS011;53237;46.158;14.604;2022-10-16T14:26:05;33.15;;;26.88;;
66425;SDS011;53237;46.158;14.604;2022-10-16T14:28:31;34.13;;;26.65;;
66425;SDS011;53237;46.158;14.604;2022-10-16T14:30:58;32.47;;;27.15;;
66425;SDS011;53237;46.158;14.604;2022-10-16T14:36:11;31.15;;;27.45;;
66425;SDS011;53237;46.158;14.604;2022-10-16T14:38:38;34.78;;;29.52;;
66425;SDS011;53237;46.158;14.604;2022-10-16T14:41:04;37.25;;;29.05;;
66425;SDS011;53237;46.158;14.604;2022-10-16T14:43:41;31.95;;;26.55;;
66425;SDS011;53237;46.158;14.604;2022-10-16T14:46:10;31.38;;;26.35;;
66425;SDS011;53237;46.158;14.604;2022-10-16T14:48:42;30.50;;;26.53;;
66425;SDS011;53237;46.158;14.604;2022-10-16T14:51:11;33.08;;;27.70;;
66425;SDS011;53237;46.158;14.604;2022-10-16T14:53:38;31.80;;;26.88;;
66425;SDS011;53237;46.158;14.604;2022-10-16T14:56:08;31.13;;;27.15;;
66425;SDS011;53237;46.158;14.604;2022-10-16T14:58:34;37.78;;;28.38;;
66425;SDS011;53237;46.158;14.604;2022-10-16T15:01:00;32.47;;;27.77;;
66425;SDS011;53237;46.158;14.604;2022-10-16T15:03:26;34.92;;;28.20;;
66425;SDS011;53237;46.158;14.604;2022-10-16T15:05:52;31.77;;;27.15;;
66425;SDS011;53237;46.158;14.604;2022-10-16T15:08:18;27.23;;;24.40;;
66425;SDS011;53237;46.158;14.604;2022-10-16T15:10:45;29.88;;;26.10;;
66425;SDS011;53237;46.158;14.604;2022-10-16T15:13:11;26.42;;;23.70;;
66425;SDS011;53237;46.158;14.604;2022-10-16T15:15:42;29.88;;;26.48;;
66425;SDS011;53237;46.158;14.604;2022-10-16T15:18:08;32.25;;;27.83;;
66425;SDS011;53237;46.158;14.604;2022-10-16T15:20:35;30.85;;;26.20;;
66425;SDS011;53237;46.158;14.604;2022-10-16T15:23:02;34.40;;;27.77;;
66425;SDS011;53237;46.158;14.604;2022-10-16T15:25:41;34.33;;;28.98;;
66425;SDS011;53237;46.158;14.604;2022-10-16T15:28:07;36.97;;;32.03;;
66425;SDS011;53237;46.158;14.604;2022-10-16T15:30:34;38.42;;;30.80;;
66425;SDS011;53237;46.158;14.604;2022-10-16T15:33:01;40.88;;;30.90;;
66425;SDS011;53237;46.158;14.604;2022-10-16T15:35:27;40.90;;;31.45;;
66425;SDS011;53237;46.158;14.604;2022-10-16T15:37:53;43.90;;;31.85;;
66425;SDS011;53237;46.158;14.604;2022-10-16T15:40:20;38.08;;;30.55;;
66425;SDS011;53237;46.158;14.604;2022-10-16T15:42:46;37.10;;;30.33;;
66425;SDS011;53237;46.158;14.604;2022-10-16T15:45:12;34.92;;;26.55;;
66425;SDS011;53237;46.158;14.604;2022-10-16T15:47:40;51.78;;;33.45;;
66425;SDS011;53237;46.158;14.604;2022-10-16T15:50:06;52.75;;;32.50;;
66425;SDS011;53237;46.158;14.604;2022-10-16T15:52:32;42.83;;;26.65;;
66425;SDS011;53237;46.158;14.604;2022-10-16T15:54:58;38.55;;;29.35;;
66425;SDS011;53237;46.158;14.604;2022-10-16T15:57:24;47.60;;;32.60;;
66425;SDS011;53237;46.158;14.604;2022-10-16T15:59:51;43.35;;;32.38;;
66425;SDS011;53237;46.158;14.604;2022-10-16T16:02:17;48.38;;;34.10;;
66425;SDS011;53237;46.158;14.604;2022-10-16T16:04:43;34.08;;;26.90;;